createdAt,value
2019-05-06T00:00:07.588Z,58.30
2019-05-06T00:02:10.824Z,58.30
2019-05-06T00:04:14.180Z,58.70
2019-05-06T00:06:17.411Z,58.90
2019-05-06T00:08:20.682Z,59.10
2019-05-06T00:10:27.230Z,59.00
2019-05-06T00:12:30.485Z,58.70
2019-05-06T00:14:34.030Z,58.50
2019-05-06T00:16:37.404Z,58.50
2019-05-06T00:18:40.734Z,58.50
2019-05-06T00:20:44.000Z,58.30
2019-05-06T00:22:47.315Z,58.20
2019-05-06T00:24:55.266Z,58.20
2019-05-06T00:27:16.796Z,58.20
2019-05-06T00:29:24.072Z,58.40
2019-05-06T00:31:26.667Z,58.40
2019-05-06T00:33:29.916Z,58.50
2019-05-06T00:35:34.239Z,59.00
2019-05-06T00:37:37.641Z,59.10
2019-05-06T00:39:44.419Z,59.40
2019-05-06T00:41:49.176Z,59.50
2019-05-06T00:43:54.436Z,59.40
2019-05-06T00:45:57.392Z,59.30
2019-05-06T00:48:00.630Z,59.30
2019-05-06T00:50:05.321Z,59.40
2019-05-06T00:52:08.834Z,59.70
2019-05-06T00:54:14.299Z,59.80
2019-05-06T00:56:17.770Z,59.90
2019-05-06T00:58:21.012Z,59.90
2019-05-06T01:00:26.054Z,60.20
2019-05-06T01:02:29.284Z,60.50
2019-05-06T01:04:33.864Z,60.40
2019-05-06T01:06:37.368Z,60.20
2019-05-06T01:08:40.612Z,60.30
2019-05-06T01:10:44.936Z,60.40
2019-05-06T01:13:08.067Z,60.40
2019-05-06T01:15:14.254Z,60.10
2019-05-06T01:17:17.626Z,60.00
2019-05-06T01:19:20.885Z,60.20
2019-05-06T01:21:24.154Z,60.00
2019-05-06T01:23:27.414Z,60.10
2019-05-06T01:25:30.727Z,59.90
2019-05-06T01:27:34.226Z,60.80
2019-05-06T01:29:37.458Z,59.90
2019-05-06T01:31:43.785Z,60.00
2019-05-06T01:33:45.742Z,60.10
2019-05-06T01:35:49.014Z,60.10
2019-05-06T01:37:54.548Z,60.00
2019-05-06T01:40:04.076Z,60.00
2019-05-06T01:42:09.221Z,60.30
2019-05-06T01:44:13.683Z,60.30
2019-05-06T01:46:17.061Z,60.00
2019-05-06T01:48:21.943Z,59.80
2019-05-06T01:50:25.202Z,60.00
2019-05-06T01:52:28.462Z,60.20
2019-05-06T01:54:31.701Z,60.30
2019-05-06T01:56:34.957Z,60.20
2019-05-06T01:58:38.202Z,60.20
2019-05-06T02:00:43.600Z,60.30
2019-05-06T02:02:46.424Z,59.70
2019-05-06T02:04:49.678Z,60.10
2019-05-06T02:06:54.536Z,60.20
2019-05-06T02:08:58.058Z,60.20
2019-05-06T02:11:01.297Z,60.20
2019-05-06T02:13:04.569Z,60.30
2019-05-06T02:15:07.835Z,60.50
2019-05-06T02:17:11.105Z,60.40
2019-05-06T02:19:14.860Z,60.20
2019-05-06T02:21:19.810Z,60.10
2019-05-06T02:23:27.745Z,60.30
2019-05-06T02:25:34.190Z,60.40
2019-05-06T02:27:37.673Z,60.50
2019-05-06T02:29:44.976Z,60.70
2019-05-06T02:32:15.466Z,61.20
2019-05-06T02:34:05.386Z,61.40
2019-05-06T02:36:26.562Z,61.30
2019-05-06T02:38:39.098Z,61.10
2019-05-06T02:40:36.438Z,61.60
2019-05-06T02:42:42.945Z,61.10
2019-05-06T02:44:44.671Z,61.50
2019-05-06T02:46:49.568Z,61.20
2019-05-06T02:49:13.235Z,61.00
2019-05-06T02:51:17.532Z,61.00
2019-05-06T02:53:23.574Z,60.90
2019-05-06T02:55:27.072Z,61.00
2019-05-06T02:57:33.256Z,61.20
2019-05-06T02:59:35.315Z,61.70
2019-05-06T03:01:38.654Z,62.00
2019-05-06T03:03:43.569Z,62.00
2019-05-06T03:05:46.969Z,61.80
2019-05-06T03:07:50.229Z,62.00
2019-05-06T03:09:53.522Z,62.20
2019-05-06T03:11:56.810Z,61.70
2019-05-06T03:14:03.018Z,62.00
2019-05-06T03:16:05.906Z,62.60
2019-05-06T03:18:09.535Z,62.00
2019-05-06T03:20:17.811Z,62.20
2019-05-06T03:22:24.090Z,62.20
2019-05-06T03:24:29.315Z,62.20
2019-05-06T03:26:33.898Z,62.30
2019-05-06T03:28:37.137Z,62.10
2019-05-06T03:30:45.216Z,62.30
2019-05-06T03:33:21.213Z,62.30
2019-05-06T03:35:13.799Z,62.10
2019-05-06T03:36:56.430Z,62.00
2019-05-06T03:39:02.965Z,61.90
2019-05-06T03:41:05.293Z,61.60
2019-05-06T03:43:08.554Z,61.80
2019-05-06T03:45:16.209Z,62.10
2019-05-06T03:47:23.475Z,61.80
2019-05-06T03:49:27.796Z,61.70
2019-05-06T03:51:33.497Z,61.50
2019-05-06T03:53:36.142Z,61.70
2019-05-06T03:55:39.479Z,61.60
2019-05-06T03:57:43.014Z,62.00
2019-05-06T03:59:46.519Z,62.10
2019-05-06T04:01:49.829Z,62.00
2019-05-06T04:03:56.965Z,62.00
2019-05-06T04:05:58.101Z,61.90
2019-05-06T04:08:03.885Z,61.80
2019-05-06T04:10:07.187Z,61.60
2019-05-06T04:12:12.771Z,61.40
2019-05-06T04:14:15.787Z,61.40
2019-05-06T04:16:33.747Z,61.80
2019-05-06T04:18:48.434Z,62.00
2019-05-06T04:20:53.411Z,62.20
2019-05-06T04:23:06.013Z,62.60
2019-05-06T04:25:07.905Z,62.50
2019-05-06T04:27:28.088Z,62.40
2019-05-06T04:29:35.228Z,62.10
2019-05-06T04:31:36.971Z,61.90
2019-05-06T04:33:40.232Z,62.10
2019-05-06T04:35:43.599Z,62.60
2019-05-06T04:37:46.842Z,62.70
2019-05-06T04:39:52.988Z,62.80
2019-05-06T04:41:55.170Z,62.70
2019-05-06T04:43:58.481Z,62.50
2019-05-06T04:46:03.202Z,62.60
2019-05-06T04:48:06.687Z,62.30
2019-05-06T04:50:12.922Z,62.70
2019-05-06T04:52:14.923Z,62.70
2019-05-06T04:54:18.172Z,62.50
2019-05-06T04:56:23.719Z,62.40
2019-05-06T04:58:26.421Z,62.70
2019-05-06T05:00:29.675Z,62.70
2019-05-06T05:02:33.698Z,62.80
2019-05-06T05:04:37.272Z,62.70
2019-05-06T05:06:43.075Z,62.70
2019-05-06T05:08:45.815Z,62.80
2019-05-06T05:10:53.434Z,62.70
2019-05-06T05:12:58.329Z,62.50
2019-05-06T05:15:12.189Z,62.40
2019-05-06T05:17:29.468Z,62.50
2019-05-06T05:19:33.028Z,62.70
2019-05-06T05:21:36.296Z,62.80
2019-05-06T05:23:39.705Z,62.40
2019-05-06T05:25:42.957Z,62.40
2019-05-06T05:27:46.234Z,62.30
2019-05-06T05:29:49.588Z,62.20
2019-05-06T05:31:53.071Z,62.30
2019-05-06T05:33:56.387Z,62.40
2019-05-06T05:35:59.658Z,62.70
2019-05-06T05:38:03.095Z,62.80
2019-05-06T05:40:06.629Z,62.60
2019-05-06T05:42:23.814Z,62.10
2019-05-06T05:44:29.021Z,62.00
2019-05-06T05:46:33.049Z,62.10
2019-05-06T05:48:54.334Z,61.80
2019-05-06T05:50:57.591Z,61.90
2019-05-06T05:53:02.443Z,61.50
2019-05-06T05:55:05.903Z,61.60
2019-05-06T05:57:09.257Z,62.30
2019-05-06T05:59:12.516Z,62.40
2019-05-06T06:01:15.766Z,61.50
2019-05-06T06:03:19.016Z,61.20
2019-05-06T06:05:22.277Z,60.90
2019-05-06T06:07:25.597Z,60.60
2019-05-06T06:09:32.752Z,60.30
2019-05-06T06:11:42.097Z,60.00
2019-05-06T06:13:45.536Z,59.70
2019-05-06T06:15:56.392Z,59.80
2019-05-06T06:18:04.025Z,59.40
2019-05-06T06:20:25.185Z,59.40
2019-05-06T06:22:30.145Z,59.60
2019-05-06T06:24:34.986Z,59.70
2019-05-06T06:26:38.225Z,59.70
2019-05-06T06:28:42.526Z,59.50
2019-05-06T06:30:56.346Z,59.50
2019-05-06T06:32:59.599Z,59.70
2019-05-06T06:35:12.037Z,60.00
2019-05-06T06:37:19.491Z,59.90
2019-05-06T06:39:33.102Z,59.60
2019-05-06T06:41:36.400Z,59.60
2019-05-06T06:43:42.025Z,59.50
2019-05-06T06:45:44.644Z,59.50
2019-05-06T06:47:48.067Z,59.60
2019-05-06T06:49:53.317Z,59.70
2019-05-06T06:51:56.289Z,59.60
2019-05-06T06:53:59.550Z,59.30
2019-05-06T06:56:22.036Z,58.90
2019-05-06T06:58:32.174Z,58.90
2019-05-06T07:00:45.819Z,58.70
2019-05-06T07:03:06.992Z,58.20
2019-05-06T07:05:28.703Z,58.10
2019-05-06T07:07:43.669Z,57.50
2019-05-06T07:09:38.485Z,57.70
2019-05-06T07:11:42.809Z,58.00
2019-05-06T07:13:49.517Z,57.90
2019-05-06T07:15:52.773Z,57.60
2019-05-06T07:17:56.070Z,57.50
2019-05-06T07:20:19.054Z,57.30
2019-05-06T07:22:23.975Z,57.10
2019-05-06T07:24:27.211Z,57.30
2019-05-06T07:26:35.014Z,57.10
2019-05-06T07:28:38.270Z,57.10
2019-05-06T07:30:42.026Z,57.20
2019-05-06T07:32:45.357Z,57.10
2019-05-06T07:34:48.673Z,56.80
2019-05-06T07:36:52.641Z,56.70
2019-05-06T07:38:56.021Z,56.80
2019-05-06T07:41:09.892Z,56.70
2019-05-06T07:43:30.754Z,57.10
2019-05-06T07:45:38.081Z,57.30
2019-05-06T07:48:00.759Z,56.60
2019-05-06T07:50:05.645Z,56.20
2019-05-06T07:52:08.927Z,55.90
2019-05-06T07:54:12.381Z,55.90
2019-05-06T07:56:15.739Z,55.80
2019-05-06T07:58:18.998Z,56.00
2019-05-06T08:00:23.004Z,56.30
2019-05-06T08:02:26.398Z,56.00
2019-05-06T08:04:29.662Z,55.70
2019-05-06T08:06:32.946Z,55.50
2019-05-06T08:08:36.662Z,55.70
2019-05-06T08:10:42.239Z,55.60
2019-05-06T08:12:44.997Z,55.80
2019-05-06T08:14:48.217Z,55.20
2019-05-06T08:17:02.333Z,54.70
2019-05-06T08:19:05.818Z,54.50
2019-05-06T08:21:13.667Z,54.10
2019-05-06T08:23:24.611Z,53.90
2019-05-06T08:25:29.481Z,54.30
2019-05-06T08:27:33.045Z,54.20
2019-05-06T08:29:36.404Z,54.10
2019-05-06T08:31:39.752Z,54.20
2019-05-06T08:33:43.325Z,54.20
2019-05-06T08:35:46.738Z,54.20
2019-05-06T08:37:50.258Z,54.20
2019-05-06T08:39:53.639Z,54.40
2019-05-06T08:41:56.888Z,53.80
2019-05-06T08:44:02.408Z,53.60
2019-05-06T08:46:05.118Z,53.60
2019-05-06T08:48:08.394Z,53.50
2019-05-06T08:50:13.548Z,53.70
2019-05-06T08:52:18.438Z,54.00
2019-05-06T08:54:23.370Z,53.80
2019-05-06T08:56:26.636Z,54.30
2019-05-06T08:58:45.575Z,53.50
2019-05-06T09:01:05.774Z,53.00
2019-05-06T09:03:09.048Z,53.30
2019-05-06T09:05:12.291Z,53.20
2019-05-06T09:07:15.530Z,53.40
2019-05-06T09:09:18.776Z,53.30
2019-05-06T09:11:25.629Z,53.20
2019-05-06T09:13:27.019Z,53.20
2019-05-06T09:15:32.544Z,52.70
2019-05-06T09:17:35.330Z,53.10
2019-05-06T09:19:38.608Z,52.20
2019-05-06T09:21:45.661Z,51.60
2019-05-06T09:23:46.917Z,51.10
2019-05-06T09:25:50.181Z,51.30
2019-05-06T09:28:02.583Z,51.10
2019-05-06T09:30:07.851Z,51.20
2019-05-06T09:32:15.352Z,51.20
2019-05-06T09:34:23.471Z,51.10
2019-05-06T09:36:39.974Z,50.80
2019-05-06T09:38:32.193Z,51.30
2019-05-06T09:40:35.525Z,51.00
2019-05-06T09:42:38.815Z,50.60
2019-05-06T09:44:43.541Z,50.30
2019-05-06T09:46:46.836Z,50.10
2019-05-06T09:49:12.642Z,50.40
2019-05-06T09:51:15.139Z,50.40
2019-05-06T09:53:20.036Z,50.40
2019-05-06T09:55:34.106Z,50.10
2019-05-06T09:57:55.477Z,49.90
2019-05-06T09:59:58.771Z,50.30
2019-05-06T10:02:02.086Z,49.70
2019-05-06T10:04:08.339Z,49.80
2019-05-06T10:06:13.130Z,50.00
2019-05-06T10:08:16.632Z,49.90
2019-05-06T10:10:19.901Z,49.80
2019-05-06T10:12:23.173Z,50.10
2019-05-06T10:14:26.408Z,49.90
2019-05-06T10:16:29.696Z,49.30
2019-05-06T10:18:32.946Z,49.00
2019-05-06T10:20:42.607Z,48.40
2019-05-06T10:22:45.970Z,48.10
2019-05-06T10:24:49.243Z,47.90
2019-05-06T10:26:54.154Z,48.00
2019-05-06T10:29:08.268Z,47.60
2019-05-06T10:31:13.170Z,47.80
2019-05-06T10:33:20.813Z,47.70
2019-05-06T10:35:26.813Z,48.20
2019-05-06T10:37:42.232Z,48.40
2019-05-06T10:39:48.977Z,48.30
2019-05-06T10:41:53.889Z,48.00
2019-05-06T10:44:15.607Z,48.10
2019-05-06T10:46:18.879Z,48.10
2019-05-06T10:48:22.618Z,48.00
2019-05-06T10:50:27.913Z,48.00
2019-05-06T10:52:33.329Z,47.60
2019-05-06T10:54:36.752Z,47.20
2019-05-06T10:56:52.366Z,47.50
2019-05-06T10:58:46.684Z,47.30
2019-05-06T11:00:52.913Z,47.10
2019-05-06T11:03:14.382Z,46.90
2019-05-06T11:05:15.022Z,47.30
2019-05-06T11:07:31.058Z,48.10
2019-05-06T11:09:23.238Z,47.20
2019-05-06T11:11:37.012Z,46.80
2019-05-06T11:13:32.264Z,46.20
2019-05-06T11:15:35.754Z,45.60
2019-05-06T11:17:39.005Z,45.30
2019-05-06T11:19:42.790Z,45.40
2019-05-06T11:21:46.164Z,45.30
2019-05-06T11:23:49.415Z,44.70
2019-05-06T11:25:52.862Z,43.90
2019-05-06T11:27:56.166Z,43.90
2019-05-06T11:30:02.286Z,44.20
2019-05-06T11:32:07.429Z,44.40
2019-05-06T11:34:14.924Z,44.40
2019-05-06T11:36:32.333Z,44.90
2019-05-06T11:38:35.686Z,45.30
2019-05-06T11:40:38.960Z,45.10
2019-05-06T11:42:43.700Z,45.80
2019-05-06T11:44:47.198Z,45.40
2019-05-06T11:46:52.331Z,44.70
2019-05-06T11:48:55.593Z,44.70
2019-05-06T11:51:00.508Z,44.50
2019-05-06T11:53:03.760Z,44.40
2019-05-06T11:55:07.448Z,43.90
2019-05-06T11:57:12.409Z,44.00
2019-05-06T11:59:17.782Z,43.70
2019-05-06T12:01:28.825Z,43.60
2019-05-06T12:03:32.689Z,43.80
2019-05-06T12:05:36.374Z,43.60
2019-05-06T12:07:39.625Z,43.70
2019-05-06T12:09:42.987Z,43.50
2019-05-06T12:11:46.271Z,43.60
2019-05-06T12:13:49.621Z,44.60
2019-05-06T12:15:52.927Z,44.20
2019-05-06T12:17:56.268Z,43.30
2019-05-06T12:19:59.529Z,43.00
2019-05-06T12:22:02.783Z,43.00
2019-05-06T12:24:06.082Z,42.50
2019-05-06T12:26:09.322Z,42.10
2019-05-06T12:28:12.594Z,42.20
2019-05-06T12:30:23.099Z,42.20
2019-05-06T12:32:28.003Z,42.60
2019-05-06T12:34:32.433Z,42.80
2019-05-06T12:36:35.844Z,42.30
2019-05-06T12:38:43.156Z,42.50
2019-05-06T12:40:45.794Z,42.50
2019-05-06T12:42:53.849Z,42.70
2019-05-06T12:44:58.889Z,42.60
2019-05-06T12:47:06.723Z,41.60
2019-05-06T12:49:12.567Z,40.90
2019-05-06T12:51:14.971Z,41.10
2019-05-06T12:53:18.221Z,40.10
2019-05-06T12:55:25.096Z,40.30
2019-05-06T12:57:26.991Z,40.60
2019-05-06T12:59:30.259Z,40.70
2019-05-06T13:01:34.269Z,40.90
2019-05-06T13:03:37.742Z,40.70
2019-05-06T13:05:42.798Z,40.60
2019-05-06T13:08:06.678Z,40.60
2019-05-06T13:10:10.200Z,40.70
2019-05-06T13:12:15.077Z,41.00
2019-05-06T13:14:18.350Z,40.70
2019-05-06T13:16:22.879Z,40.10
2019-05-06T13:18:26.380Z,39.70
2019-05-06T13:20:34.701Z,40.00
2019-05-06T13:22:53.358Z,40.00
2019-05-06T13:24:57.030Z,39.70
2019-05-06T13:27:02.278Z,39.50
2019-05-06T13:29:10.111Z,39.60
2019-05-06T13:31:20.508Z,39.90
2019-05-06T13:33:28.800Z,40.30
2019-05-06T13:35:32.822Z,40.70
2019-05-06T13:37:36.099Z,41.90
2019-05-06T13:39:39.405Z,41.40
2019-05-06T13:41:42.741Z,41.00
2019-05-06T13:43:50.711Z,40.30
2019-05-06T13:46:07.647Z,40.20
2019-05-06T13:48:13.301Z,39.40
2019-05-06T13:50:18.316Z,38.90
2019-05-06T13:52:23.164Z,38.50
2019-05-06T13:54:26.492Z,38.30
2019-05-06T13:56:29.967Z,38.50
2019-05-06T13:58:33.241Z,38.00
2019-05-06T14:00:37.057Z,38.10
2019-05-06T14:02:44.702Z,37.90
2019-05-06T14:04:48.023Z,38.30
2019-05-06T14:06:52.766Z,38.20
2019-05-06T14:08:56.232Z,38.40
2019-05-06T14:11:00.143Z,38.40
2019-05-06T14:13:04.766Z,37.70
2019-05-06T14:15:08.038Z,37.70
2019-05-06T14:17:12.739Z,37.90
2019-05-06T14:19:16.307Z,37.50
2019-05-06T14:21:19.557Z,37.10
2019-05-06T14:23:22.830Z,36.70
2019-05-06T14:25:44.490Z,36.70
2019-05-06T14:27:49.410Z,36.80
2019-05-06T14:30:09.552Z,37.10
2019-05-06T14:32:14.817Z,36.80
2019-05-06T14:34:17.867Z,37.10
2019-05-06T14:36:22.923Z,37.30
2019-05-06T14:38:26.094Z,36.30
2019-05-06T14:40:29.868Z,36.60
2019-05-06T14:42:33.227Z,36.70
2019-05-06T14:44:36.499Z,36.90
2019-05-06T14:46:56.773Z,37.10
2019-05-06T14:49:04.066Z,37.40
2019-05-06T14:51:05.003Z,36.90
2019-05-06T14:53:08.250Z,37.80
2019-05-06T14:55:15.357Z,37.90
2019-05-06T14:57:18.865Z,38.30
2019-05-06T14:59:23.401Z,38.10
2019-05-06T15:01:26.887Z,38.20
2019-05-06T15:03:32.441Z,38.50
2019-05-06T15:05:36.268Z,38.50
2019-05-06T15:07:41.965Z,38.60
2019-05-06T15:09:57.971Z,38.50
2019-05-06T15:11:49.799Z,38.30
2019-05-06T15:13:53.191Z,38.70
2019-05-06T15:15:56.524Z,39.10
2019-05-06T15:17:59.911Z,39.20
2019-05-06T15:20:04.150Z,39.00
2019-05-06T15:22:07.412Z,38.70
2019-05-06T15:24:13.488Z,38.40
2019-05-06T15:26:15.790Z,38.20
2019-05-06T15:28:19.070Z,38.30
2019-05-06T15:30:29.715Z,38.20
2019-05-06T15:32:34.700Z,38.30
2019-05-06T15:34:39.611Z,38.40
2019-05-06T15:36:44.546Z,38.80
2019-05-06T15:38:47.810Z,38.50
2019-05-06T15:40:52.476Z,38.50
2019-05-06T15:42:55.942Z,38.70
2019-05-06T15:44:59.230Z,38.60
2019-05-06T15:47:03.269Z,38.50
2019-05-06T15:49:06.660Z,38.50
2019-05-06T15:51:12.083Z,39.30
2019-05-06T15:53:14.941Z,39.60
2019-05-06T15:55:18.246Z,39.60
2019-05-06T15:57:22.919Z,39.60
2019-05-06T15:59:26.524Z,39.80
2019-05-06T16:01:33.203Z,40.10
2019-05-06T16:03:34.801Z,40.30
2019-05-06T16:05:38.060Z,40.30
2019-05-06T16:07:43.374Z,40.50
2019-05-06T16:09:46.384Z,40.80
2019-05-06T16:11:49.729Z,41.00
2019-05-06T16:13:53.403Z,40.80
2019-05-06T16:15:56.869Z,40.80
2019-05-06T16:18:02.414Z,41.10
2019-05-06T16:20:06.091Z,41.30
2019-05-06T16:22:09.391Z,41.10
2019-05-06T16:24:17.315Z,41.30
2019-05-06T16:26:22.820Z,41.50
2019-05-06T16:28:25.628Z,41.50
2019-05-06T16:30:28.905Z,41.20
2019-05-06T16:32:33.224Z,40.90
2019-05-06T16:34:36.638Z,41.00
2019-05-06T16:36:39.922Z,40.70
2019-05-06T16:38:43.174Z,40.50
2019-05-06T16:40:46.432Z,40.50
2019-05-06T16:42:49.868Z,40.60
2019-05-06T16:44:53.161Z,40.50
2019-05-06T16:46:56.504Z,40.80
2019-05-06T16:49:02.220Z,40.80
2019-05-06T16:51:04.967Z,41.30
2019-05-06T16:53:08.264Z,41.50
2019-05-06T16:55:16.036Z,41.50
2019-05-06T16:57:23.075Z,41.70
2019-05-06T16:59:26.026Z,41.60
2019-05-06T17:01:29.368Z,41.70
2019-05-06T17:03:40.041Z,42.20
2019-05-06T17:05:44.941Z,42.10
2019-05-06T17:07:52.218Z,41.80
2019-05-06T17:09:54.850Z,41.80
2019-05-06T17:11:58.120Z,42.00
2019-05-06T17:14:03.069Z,41.60
2019-05-06T17:16:07.890Z,40.70
2019-05-06T17:18:12.233Z,40.20
2019-05-06T17:20:15.711Z,41.00
2019-05-06T17:22:18.941Z,40.90
2019-05-06T17:24:22.316Z,41.50
2019-05-06T17:26:25.571Z,40.80
2019-05-06T17:28:33.561Z,40.80
2019-05-06T17:30:51.634Z,40.60
2019-05-06T17:33:02.205Z,40.70
2019-05-06T17:35:06.507Z,40.70
2019-05-06T17:37:12.509Z,40.80
2019-05-06T17:39:15.956Z,40.90
2019-05-06T17:41:19.339Z,41.30
2019-05-06T17:43:22.702Z,40.70
2019-05-06T17:45:43.159Z,41.30
2019-05-06T17:47:48.387Z,40.50
2019-05-06T17:49:52.890Z,40.90
2019-05-06T17:51:58.012Z,41.00
2019-05-06T17:54:03.202Z,41.20
2019-05-06T17:56:06.547Z,41.60
2019-05-06T17:58:09.835Z,41.90
2019-05-06T18:00:13.512Z,42.20
2019-05-06T18:02:19.295Z,42.50
2019-05-06T18:04:22.903Z,42.60
2019-05-06T18:06:26.244Z,42.90
2019-05-06T18:08:29.493Z,43.40
2019-05-06T18:10:33.612Z,43.50
2019-05-06T18:12:37.073Z,43.60
2019-05-06T18:14:40.403Z,43.00
2019-05-06T18:16:43.755Z,43.90
2019-05-06T18:18:47.149Z,44.10
2019-05-06T18:20:50.446Z,44.40
2019-05-06T18:22:53.756Z,44.90
2019-05-06T18:24:57.150Z,45.30
2019-05-06T18:27:02.483Z,45.40
2019-05-06T18:29:06.322Z,45.20
2019-05-06T18:31:09.663Z,45.30
2019-05-06T18:33:13.338Z,45.30
2019-05-06T18:35:16.790Z,45.30
2019-05-06T18:37:20.111Z,45.40
2019-05-06T18:39:23.401Z,45.90
2019-05-06T18:41:29.205Z,46.00
2019-05-06T18:43:33.167Z,46.40
2019-05-06T18:45:36.869Z,46.50
2019-05-06T18:47:41.873Z,46.50
2019-05-06T18:49:45.127Z,46.80
2019-05-06T18:51:51.234Z,46.90
2019-05-06T18:53:53.441Z,46.80
2019-05-06T18:55:56.711Z,46.90
2019-05-06T18:58:02.101Z,47.10
2019-05-06T19:00:08.313Z,47.20
2019-05-06T19:02:13.167Z,47.30
2019-05-06T19:04:24.527Z,47.60
2019-05-06T19:06:28.008Z,47.60
2019-05-06T19:08:33.415Z,47.60
2019-05-06T19:10:36.704Z,47.60
2019-05-06T19:12:41.611Z,47.90
2019-05-06T19:14:45.132Z,48.00
2019-05-06T19:16:52.167Z,48.30
2019-05-06T19:19:12.932Z,48.60
2019-05-06T19:21:16.252Z,48.70
2019-05-06T19:23:19.504Z,48.70
2019-05-06T19:25:22.832Z,48.90
2019-05-06T19:27:26.273Z,48.90
2019-05-06T19:29:29.612Z,49.20
2019-05-06T19:31:33.100Z,49.10
2019-05-06T19:33:36.449Z,49.40
2019-05-06T19:35:39.811Z,49.60
2019-05-06T19:37:43.291Z,49.70
2019-05-06T19:39:46.758Z,49.80
2019-05-06T19:41:50.371Z,49.80
2019-05-06T19:43:53.844Z,49.90
2019-05-06T19:45:57.420Z,50.20
2019-05-06T19:48:02.961Z,50.40
2019-05-06T19:50:06.170Z,50.20
2019-05-06T19:52:09.644Z,50.00
2019-05-06T19:54:13.064Z,49.80
2019-05-06T19:56:16.351Z,50.40
2019-05-06T19:58:19.731Z,50.40
2019-05-06T20:00:24.312Z,50.20
2019-05-06T20:02:27.678Z,50.40
2019-05-06T20:04:33.213Z,50.50
2019-05-06T20:06:41.103Z,50.50
2019-05-06T20:08:47.174Z,50.60
2019-05-06T20:10:58.266Z,50.70
2019-05-06T20:13:05.387Z,50.90
2019-05-06T20:15:26.541Z,51.00
2019-05-06T20:17:29.812Z,51.20
2019-05-06T20:19:34.291Z,51.20
2019-05-06T20:21:37.636Z,51.30
2019-05-06T20:23:42.535Z,51.20
2019-05-06T20:25:46.035Z,51.60
2019-05-06T20:27:49.392Z,51.60
2019-05-06T20:29:52.737Z,51.70
2019-05-06T20:31:56.087Z,51.60
2019-05-06T20:33:59.418Z,51.90
2019-05-06T20:36:02.722Z,51.90
2019-05-06T20:38:06.061Z,52.00
2019-05-06T20:40:11.746Z,52.00
2019-05-06T20:42:14.360Z,52.20
2019-05-06T20:44:17.660Z,52.00
2019-05-06T20:46:21.959Z,52.10
2019-05-06T20:48:25.398Z,52.00
2019-05-06T20:50:28.723Z,51.90
2019-05-06T20:52:33.201Z,51.60
2019-05-06T20:54:36.656Z,51.70
2019-05-06T20:56:42.019Z,51.90
2019-05-06T20:58:45.054Z,52.20
2019-05-06T21:00:48.325Z,52.30
2019-05-06T21:02:53.455Z,52.30
2019-05-06T21:04:56.728Z,52.20
2019-05-06T21:07:02.616Z,52.10
2019-05-06T21:09:06.609Z,52.10
2019-05-06T21:11:25.052Z,52.20
2019-05-06T21:13:28.669Z,52.10
2019-05-06T21:15:20.146Z,52.40
2019-05-06T21:17:23.414Z,52.40
2019-05-06T21:19:26.670Z,52.50
2019-05-06T21:21:31.833Z,52.60
2019-05-06T21:23:35.047Z,52.80
2019-05-06T21:25:38.374Z,52.70
2019-05-06T21:27:42.380Z,52.70
2019-05-06T21:29:45.831Z,53.40
2019-05-06T21:31:49.133Z,53.10
2019-05-06T21:33:52.464Z,52.90
2019-05-06T21:35:55.739Z,52.90
2019-05-06T21:37:59.038Z,53.00
2019-05-06T21:40:02.750Z,53.10
2019-05-06T21:42:06.210Z,52.90
2019-05-06T21:44:09.480Z,53.10
2019-05-06T21:46:13.043Z,54.00
2019-05-06T21:48:16.415Z,53.60
2019-05-06T21:50:19.658Z,53.70
2019-05-06T21:52:34.350Z,53.90
2019-05-06T21:54:27.971Z,53.60
2019-05-06T21:56:32.028Z,53.60
2019-05-06T21:58:35.401Z,53.80
2019-05-06T22:00:40.315Z,53.90
2019-05-06T22:02:43.584Z,54.40
2019-05-06T22:04:46.819Z,53.90
2019-05-06T22:06:52.259Z,53.80
2019-05-06T22:08:55.103Z,53.90
2019-05-06T22:11:00.098Z,53.80
2019-05-06T22:13:03.332Z,53.80
2019-05-06T22:15:09.215Z,54.00
2019-05-06T22:17:14.106Z,53.80
2019-05-06T22:19:17.522Z,53.80
2019-05-06T22:21:24.953Z,53.80
2019-05-06T22:23:29.945Z,53.80
2019-05-06T22:25:33.208Z,54.20
2019-05-06T22:27:36.562Z,54.90
2019-05-06T22:29:39.827Z,54.20
2019-05-06T22:31:43.135Z,54.10
2019-05-06T22:33:46.472Z,54.00
2019-05-06T22:35:49.761Z,54.00
2019-05-06T22:37:53.185Z,54.10
2019-05-06T22:39:56.496Z,54.10
2019-05-06T22:41:59.808Z,54.30
2019-05-06T22:44:13.317Z,54.20
2019-05-06T22:46:08.069Z,54.10
2019-05-06T22:48:12.109Z,53.90
2019-05-06T22:50:15.570Z,53.80
2019-05-06T22:52:18.810Z,53.80
2019-05-06T22:54:24.350Z,54.00
2019-05-06T22:56:27.053Z,53.90
2019-05-06T22:58:30.336Z,54.30
2019-05-06T23:00:35.265Z,54.40
2019-05-06T23:02:43.239Z,54.70
2019-05-06T23:04:54.165Z,54.80
2019-05-06T23:06:57.404Z,54.90
2019-05-06T23:09:02.527Z,54.80
2019-05-06T23:11:05.652Z,54.90
2019-05-06T23:13:08.894Z,54.90
2019-05-06T23:15:12.230Z,54.90
2019-05-06T23:17:15.554Z,54.90
2019-05-06T23:19:18.835Z,55.00
2019-05-06T23:21:23.227Z,55.30
2019-05-06T23:23:26.647Z,55.20
2019-05-06T23:25:29.906Z,55.40
2019-05-06T23:27:33.174Z,55.40
2019-05-06T23:29:36.438Z,55.20
2019-05-06T23:31:39.711Z,55.40
2019-05-06T23:33:43.874Z,55.50
2019-05-06T23:35:47.161Z,55.20
2019-05-06T23:38:27.107Z,55.10
2019-05-06T23:41:07.070Z,55.20
2019-05-06T23:43:47.417Z,55.10
2019-05-06T23:46:27.612Z,55.30
2019-05-06T23:49:07.517Z,55.30
2019-05-06T23:51:47.468Z,55.30
2019-05-06T23:54:27.666Z,55.30
2019-05-06T23:56:42.838Z,55.50
2019-05-06T23:58:45.729Z,56.30
